Terminal Aerodrome Forecast
Issued by NWS

Home | Current Version | Previous Version | Text Only | Print | Product List | Glossary On
Versions: 1 2 3 4 5 6 7 8 9 10 11 12 13 14 15 16 17 18 19 20 21
737
FTUS42 KTAE 201734
TAFABY
TAF
KABY 201734Z 2018/2118 10005KT P6SM -TSRA BKN025CB OVC050
     FM202200 10004KT P6SM -SHRA BKN025
     FM210900 09010KT 6SM -RA BR OVC007
     FM211500 11010KT P6SM OVC015=

USA.gov is the U.S. government's official web portal to all federal, state and local government web resources and services.